createdAt,value
2022-10-31T00:00:15.566Z,99.99
2022-10-31T00:01:15.491Z,99.99
2022-10-31T00:02:15.519Z,99.99
2022-10-31T00:03:15.446Z,99.99
2022-10-31T00:04:15.412Z,99.99
2022-10-31T00:05:15.412Z,99.99
2022-10-31T00:06:15.414Z,99.99
2022-10-31T00:07:15.428Z,99.99
2022-10-31T00:08:15.400Z,99.99
2022-10-31T00:09:15.363Z,99.99
2022-10-31T00:10:15.399Z,99.99
2022-10-31T00:11:15.361Z,99.99
2022-10-31T00:12:15.363Z,99.99
2022-10-31T00:13:15.452Z,99.99
2022-10-31T00:14:15.348Z,99.99
2022-10-31T00:15:15.309Z,99.99
2022-10-31T00:16:15.348Z,99.99
2022-10-31T00:17:15.287Z,99.99
2022-10-31T00:18:15.296Z,99.99
2022-10-31T00:19:15.263Z,99.99
2022-10-31T00:20:15.267Z,99.99
2022-10-31T00:21:15.265Z,99.99
2022-10-31T00:22:15.240Z,99.99
2022-10-31T00:23:15.220Z,99.99
2022-10-31T00:24:15.215Z,99.99
2022-10-31T00:25:15.207Z,99.99
2022-10-31T00:26:15.289Z,99.99
2022-10-31T00:27:15.211Z,99.99
2022-10-31T00:28:15.248Z,99.99
2022-10-31T00:29:15.160Z,99.99
2022-10-31T00:30:15.155Z,99.99
2022-10-31T00:31:15.149Z,99.99
2022-10-31T00:32:15.189Z,99.99
2022-10-31T00:33:15.124Z,99.99
2022-10-31T00:34:15.136Z,99.99
2022-10-31T00:35:15.128Z,99.99
2022-10-31T00:36:15.100Z,99.99
2022-10-31T00:37:15.097Z,99.99
2022-10-31T00:38:15.072Z,99.99
2022-10-31T00:39:15.049Z,99.99
2022-10-31T00:40:15.056Z,99.99
2022-10-31T00:41:15.031Z,99.99
2022-10-31T00:42:15.057Z,99.99
2022-10-31T00:43:15.014Z,99.99
2022-10-31T00:44:15.013Z,99.99
2022-10-31T00:45:14.995Z,99.99
2022-10-31T00:46:14.982Z,99.99
2022-10-31T00:47:14.969Z,99.99
2022-10-31T00:48:14.989Z,99.99
2022-10-31T00:49:14.941Z,99.99
2022-10-31T00:50:14.947Z,99.99
2022-10-31T00:51:14.926Z,99.99
2022-10-31T00:52:14.918Z,99.99
2022-10-31T00:53:14.942Z,99.99
2022-10-31T00:54:15.026Z,99.99
2022-10-31T00:55:14.873Z,99.99
2022-10-31T00:56:14.877Z,99.99
2022-10-31T00:57:14.866Z,99.99
2022-10-31T00:59:14.823Z,99.99
2022-10-31T01:00:14.852Z,99.99
2022-10-31T01:01:14.917Z,99.99
2022-10-31T01:02:14.991Z,99.99
2022-10-31T01:03:14.818Z,99.99
2022-10-31T01:04:14.813Z,99.99
2022-10-31T01:05:14.782Z,99.99
2022-10-31T01:06:14.782Z,99.99
2022-10-31T01:07:14.798Z,99.99
2022-10-31T01:08:14.760Z,99.99
2022-10-31T01:09:14.745Z,99.99
2022-10-31T01:10:14.735Z,99.99
2022-10-31T01:11:14.701Z,99.99
2022-10-31T01:12:14.693Z,99.99
2022-10-31T01:13:14.714Z,99.99
2022-10-31T01:14:14.684Z,99.99
2022-10-31T01:15:14.675Z,99.99
2022-10-31T01:16:14.656Z,99.99
2022-10-31T01:17:14.643Z,99.99
2022-10-31T01:18:14.650Z,99.99
2022-10-31T01:19:14.622Z,99.99
2022-10-31T01:20:14.614Z,99.99
2022-10-31T01:21:14.608Z,99.99
2022-10-31T01:22:14.634Z,99.99
2022-10-31T01:23:14.571Z,99.99
2022-10-31T01:24:14.573Z,99.99
2022-10-31T01:25:14.783Z,99.99
2022-10-31T01:26:14.567Z,99.99
2022-10-31T01:27:14.519Z,99.99
2022-10-31T01:28:14.586Z,99.99
2022-10-31T01:29:14.523Z,99.99
2022-10-31T01:30:14.578Z,99.99
2022-10-31T01:31:14.508Z,99.99
2022-10-31T01:32:14.520Z,99.99
2022-10-31T01:33:14.462Z,99.99
2022-10-31T01:34:14.493Z,99.99
2022-10-31T01:35:14.451Z,99.99
2022-10-31T01:36:14.454Z,99.99
2022-10-31T01:37:14.428Z,99.99
2022-10-31T01:38:14.427Z,99.99
2022-10-31T01:39:14.498Z,99.99
2022-10-31T01:40:14.404Z,99.99
2022-10-31T01:41:14.402Z,99.99
2022-10-31T01:42:14.402Z,99.99
2022-10-31T01:43:14.449Z,99.99
2022-10-31T01:44:14.400Z,99.99
2022-10-31T01:45:14.349Z,99.99
2022-10-31T01:46:14.387Z,99.99
2022-10-31T01:47:14.363Z,99.99
2022-10-31T01:48:14.313Z,99.99
2022-10-31T01:49:14.297Z,99.99
2022-10-31T01:50:14.308Z,99.99
2022-10-31T01:51:14.272Z,99.99
2022-10-31T01:52:14.294Z,99.99
2022-10-31T01:53:14.257Z,99.99
2022-10-31T01:54:15.402Z,99.99
2022-10-31T01:55:14.228Z,99.99
2022-10-31T01:56:14.227Z,99.99
2022-10-31T01:57:14.243Z,99.99
2022-10-31T01:58:14.317Z,99.99
2022-10-31T01:59:14.222Z,99.99
2022-10-31T02:00:14.167Z,99.99
2022-10-31T02:01:14.290Z,99.99
2022-10-31T02:02:14.418Z,99.99
2022-10-31T02:03:14.159Z,99.99
2022-10-31T02:04:14.140Z,99.99
2022-10-31T02:05:14.137Z,99.99
2022-10-31T02:06:14.116Z,99.99
2022-10-31T02:07:14.098Z,99.99
2022-10-31T02:08:14.115Z,99.99
2022-10-31T02:09:14.089Z,99.99
2022-10-31T02:10:14.094Z,99.99
2022-10-31T02:11:14.047Z,99.99
2022-10-31T02:12:14.055Z,99.99
2022-10-31T02:13:14.239Z,99.99
2022-10-31T02:14:14.034Z,99.99
2022-10-31T02:15:14.029Z,99.99
2022-10-31T02:16:14.801Z,99.99
2022-10-31T02:17:13.987Z,99.99
2022-10-31T02:18:14.007Z,99.99
2022-10-31T02:19:13.965Z,99.99
2022-10-31T02:20:13.968Z,99.99
2022-10-31T02:21:13.958Z,99.99
2022-10-31T02:22:13.934Z,99.99
2022-10-31T02:23:14.493Z,99.99
2022-10-31T02:24:13.934Z,99.99
2022-10-31T02:25:13.914Z,99.99
2022-10-31T02:26:13.909Z,99.99
2022-10-31T02:27:13.877Z,99.99
2022-10-31T02:28:13.964Z,99.99
2022-10-31T02:29:13.864Z,99.99
2022-10-31T02:30:13.864Z,99.99
2022-10-31T02:31:13.837Z,99.99
2022-10-31T02:32:13.836Z,99.99
2022-10-31T02:33:13.817Z,99.99
2022-10-31T02:34:13.843Z,99.99
2022-10-31T02:35:17.515Z,99.99
2022-10-31T02:36:13.794Z,99.99
2022-10-31T02:37:13.777Z,99.99
2022-10-31T02:38:13.770Z,99.99
2022-10-31T02:39:13.780Z,99.99
2022-10-31T02:40:13.747Z,99.99
2022-10-31T02:41:13.729Z,99.99
2022-10-31T02:42:13.735Z,99.99
2022-10-31T02:44:13.917Z,99.99
2022-10-31T02:45:13.698Z,99.99
2022-10-31T02:46:13.685Z,99.99
2022-10-31T02:47:13.713Z,99.99
2022-10-31T02:48:13.671Z,99.99
2022-10-31T02:49:13.638Z,99.99
2022-10-31T02:50:13.661Z,99.99
2022-10-31T02:51:13.659Z,99.99
2022-10-31T02:52:13.634Z,99.99
2022-10-31T02:53:13.608Z,99.99
2022-10-31T02:54:13.610Z,99.99
2022-10-31T02:55:13.597Z,99.99
2022-10-31T02:56:13.579Z,99.99
2022-10-31T02:57:13.643Z,99.99
2022-10-31T02:58:13.604Z,99.99
2022-10-31T02:59:13.543Z,99.99
2022-10-31T03:00:13.554Z,99.99
2022-10-31T03:01:13.617Z,99.99
2022-10-31T03:02:13.726Z,99.99
2022-10-31T03:03:13.499Z,99.99
2022-10-31T03:04:13.478Z,99.99
2022-10-31T03:05:13.506Z,99.99
2022-10-31T03:06:13.491Z,99.99
2022-10-31T03:07:13.449Z,99.99
2022-10-31T03:08:13.461Z,99.99
2022-10-31T03:09:13.472Z,99.99
2022-10-31T03:10:13.441Z,99.99
2022-10-31T03:11:13.425Z,99.99
2022-10-31T03:12:13.417Z,99.99
2022-10-31T03:13:13.547Z,99.99
2022-10-31T03:14:13.409Z,99.99
2022-10-31T03:15:13.389Z,99.99
2022-10-31T03:16:13.401Z,99.99
2022-10-31T03:17:13.343Z,99.99
2022-10-31T03:18:13.357Z,99.99
2022-10-31T03:19:13.323Z,99.99
2022-10-31T03:20:13.387Z,99.99
2022-10-31T03:21:13.305Z,99.99
2022-10-31T03:22:13.297Z,99.99
2022-10-31T03:23:13.281Z,99.99
2022-10-31T03:24:13.296Z,99.99
2022-10-31T03:25:13.272Z,99.99
2022-10-31T03:26:13.948Z,99.99
2022-10-31T03:27:13.280Z,99.99
2022-10-31T03:28:13.354Z,99.99
2022-10-31T03:29:13.234Z,99.99
2022-10-31T03:30:13.245Z,99.99
2022-10-31T03:31:13.194Z,99.99
2022-10-31T03:32:13.202Z,99.99
2022-10-31T03:33:13.173Z,99.99
2022-10-31T03:34:13.186Z,99.99
2022-10-31T03:35:13.153Z,99.99
2022-10-31T03:36:13.180Z,99.99
2022-10-31T03:37:13.130Z,99.99
2022-10-31T03:38:13.140Z,99.99
2022-10-31T03:39:13.114Z,99.99
2022-10-31T03:40:13.111Z,99.99
2022-10-31T03:41:13.127Z,99.99
2022-10-31T03:42:13.094Z,99.99
2022-10-31T03:43:13.097Z,99.99
2022-10-31T03:44:13.066Z,99.99
2022-10-31T03:45:13.066Z,99.99
2022-10-31T03:46:13.121Z,99.99
2022-10-31T03:47:13.039Z,99.99
2022-10-31T03:48:13.086Z,99.99
2022-10-31T03:49:13.010Z,99.99
2022-10-31T03:50:13.014Z,99.99
2022-10-31T03:51:13.003Z,99.99
2022-10-31T03:52:12.969Z,99.99
2022-10-31T03:53:12.999Z,99.99
2022-10-31T03:54:12.961Z,99.99
2022-10-31T03:55:12.943Z,99.99
2022-10-31T03:56:13.192Z,99.99
2022-10-31T03:57:12.934Z,99.99
2022-10-31T03:58:13.001Z,99.99
2022-10-31T03:59:12.892Z,99.99
2022-10-31T04:00:12.903Z,99.99
2022-10-31T04:01:13.020Z,99.99
2022-10-31T04:02:12.987Z,99.99
2022-10-31T04:03:12.883Z,99.99
2022-10-31T04:04:12.843Z,99.99
2022-10-31T04:05:12.861Z,99.99
2022-10-31T04:06:12.822Z,99.99
2022-10-31T04:07:12.835Z,99.99
2022-10-31T04:08:12.816Z,99.99
2022-10-31T04:09:12.820Z,99.99
2022-10-31T04:10:12.789Z,99.99
2022-10-31T04:11:12.786Z,99.99
2022-10-31T04:12:12.774Z,99.99
2022-10-31T04:13:12.835Z,99.99
2022-10-31T04:14:12.733Z,99.99
2022-10-31T04:15:12.743Z,99.99
2022-10-31T04:16:16.088Z,99.99
2022-10-31T04:17:12.739Z,99.99
2022-10-31T04:18:12.700Z,99.99
2022-10-31T04:19:12.742Z,99.99
2022-10-31T04:20:12.671Z,99.99
2022-10-31T04:21:12.680Z,99.99
2022-10-31T04:22:12.652Z,99.99
2022-10-31T04:23:14.720Z,99.99
2022-10-31T04:24:12.657Z,99.99
2022-10-31T04:25:12.616Z,99.99
2022-10-31T04:26:12.613Z,99.99
2022-10-31T04:27:12.624Z,99.99
2022-10-31T04:28:12.644Z,99.99
2022-10-31T04:29:12.601Z,99.99
2022-10-31T04:30:12.570Z,99.99
2022-10-31T04:31:12.593Z,99.99
2022-10-31T04:32:12.572Z,99.99
2022-10-31T04:33:12.540Z,99.99
2022-10-31T04:34:12.554Z,99.99
2022-10-31T04:35:12.539Z,99.99
2022-10-31T04:36:12.540Z,99.99
2022-10-31T04:37:12.497Z,99.99
2022-10-31T04:38:12.472Z,99.99
2022-10-31T04:39:12.486Z,99.99
2022-10-31T04:40:12.479Z,99.99
2022-10-31T04:41:12.456Z,99.99
2022-10-31T04:42:12.522Z,99.99
2022-10-31T04:43:12.559Z,99.99
2022-10-31T04:44:12.489Z,99.99
2022-10-31T04:45:15.515Z,99.99
2022-10-31T04:46:12.418Z,99.99
2022-10-31T04:47:12.394Z,99.99
2022-10-31T04:48:12.382Z,99.99
2022-10-31T04:49:12.369Z,99.99
2022-10-31T04:50:12.390Z,99.99
2022-10-31T04:51:12.348Z,99.99
2022-10-31T04:52:12.329Z,99.99
2022-10-31T04:53:12.329Z,99.99
2022-10-31T04:54:12.314Z,99.99
2022-10-31T04:55:12.346Z,99.99
2022-10-31T04:56:12.337Z,99.99
2022-10-31T04:57:12.276Z,99.99
2022-10-31T04:58:12.358Z,99.99
2022-10-31T04:59:13.297Z,99.99
2022-10-31T05:00:12.250Z,99.99
2022-10-31T05:01:12.398Z,99.99
2022-10-31T05:02:12.376Z,99.99
2022-10-31T05:03:12.228Z,99.99
2022-10-31T05:04:12.214Z,99.99
2022-10-31T05:05:12.249Z,99.99
2022-10-31T05:06:12.195Z,99.99
2022-10-31T05:07:12.209Z,99.99
2022-10-31T05:08:12.175Z,99.99
2022-10-31T05:09:12.161Z,99.99
2022-10-31T05:10:12.138Z,99.99
2022-10-31T05:11:12.142Z,99.99
2022-10-31T05:12:12.157Z,99.99
2022-10-31T05:13:12.183Z,99.99
2022-10-31T05:14:12.103Z,99.99
2022-10-31T05:15:12.111Z,99.99
2022-10-31T05:16:12.087Z,99.99
2022-10-31T05:17:12.070Z,99.99
2022-10-31T05:18:12.086Z,99.99
2022-10-31T05:19:12.054Z,99.99
2022-10-31T05:20:13.146Z,99.99
2022-10-31T05:21:12.044Z,99.99
2022-10-31T05:22:12.009Z,99.99
2022-10-31T05:23:12.039Z,99.99
2022-10-31T05:24:12.022Z,99.99
2022-10-31T05:25:12.014Z,99.99
2022-10-31T05:26:11.979Z,99.99
2022-10-31T05:27:11.961Z,99.99
2022-10-31T05:28:11.949Z,99.99
2022-10-31T05:29:11.976Z,99.99
2022-10-31T05:30:11.927Z,99.99
2022-10-31T05:31:11.938Z,99.99
2022-10-31T05:32:11.918Z,99.99
2022-10-31T05:33:11.904Z,99.99
2022-10-31T05:34:11.899Z,99.99
2022-10-31T05:35:11.904Z,99.99
2022-10-31T05:36:11.859Z,99.99
2022-10-31T05:37:11.871Z,99.99
2022-10-31T05:38:11.891Z,99.99
2022-10-31T05:39:11.884Z,99.99
2022-10-31T05:40:11.854Z,99.99
2022-10-31T05:41:12.598Z,99.99
2022-10-31T05:42:11.799Z,99.99
2022-10-31T05:43:11.796Z,99.99
2022-10-31T05:44:11.810Z,99.99
2022-10-31T05:45:11.793Z,99.99
2022-10-31T05:46:11.759Z,99.99
2022-10-31T05:47:11.788Z,99.99
2022-10-31T05:48:11.773Z,99.99
2022-10-31T05:49:11.739Z,99.99
2022-10-31T05:50:11.740Z,99.99
2022-10-31T05:51:11.712Z,99.99
2022-10-31T05:52:11.647Z,99.99
2022-10-31T05:53:11.706Z,99.99
2022-10-31T05:54:15.819Z,99.99
2022-10-31T05:55:11.640Z,99.99
2022-10-31T05:56:11.612Z,99.99
2022-10-31T05:57:11.643Z,99.99
2022-10-31T05:58:11.637Z,99.99
2022-10-31T05:59:11.603Z,99.99
2022-10-31T06:00:11.576Z,99.99
2022-10-31T06:01:11.657Z,99.99
2022-10-31T06:02:11.619Z,99.99
2022-10-31T06:03:11.560Z,99.99
2022-10-31T06:04:11.525Z,99.99
2022-10-31T06:05:11.603Z,99.99
2022-10-31T06:06:11.542Z,99.99
2022-10-31T06:07:11.506Z,99.99
2022-10-31T06:08:11.474Z,99.99
2022-10-31T06:09:11.504Z,99.99
2022-10-31T06:10:11.476Z,99.99
2022-10-31T06:11:11.514Z,99.99
2022-10-31T06:12:11.455Z,99.99
2022-10-31T06:13:11.427Z,99.99
2022-10-31T06:14:11.432Z,99.99
2022-10-31T06:15:11.450Z,99.99
2022-10-31T06:16:11.418Z,99.99
2022-10-31T06:17:11.409Z,99.99
2022-10-31T06:18:11.386Z,99.99
2022-10-31T06:19:11.372Z,99.99
2022-10-31T06:20:11.345Z,99.99
2022-10-31T06:21:12.547Z,99.99
2022-10-31T06:22:11.333Z,99.99
2022-10-31T06:23:11.366Z,99.99
2022-10-31T06:24:11.302Z,99.99
2022-10-31T06:25:11.317Z,99.99
2022-10-31T06:26:11.296Z,99.99
2022-10-31T06:27:11.306Z,99.99
2022-10-31T06:28:11.259Z,99.99
2022-10-31T06:29:11.255Z,99.99
2022-10-31T06:30:11.221Z,99.99
2022-10-31T06:31:11.250Z,99.99
2022-10-31T06:32:11.260Z,99.99
2022-10-31T06:33:11.205Z,99.99
2022-10-31T06:34:11.407Z,99.99
2022-10-31T06:35:11.196Z,99.99
2022-10-31T06:36:11.161Z,99.99
2022-10-31T06:37:11.207Z,99.99
2022-10-31T06:38:11.190Z,99.99
2022-10-31T06:39:11.155Z,99.99
2022-10-31T06:40:11.127Z,99.99
2022-10-31T06:41:11.115Z,99.99
2022-10-31T06:42:11.133Z,99.99
2022-10-31T06:43:11.234Z,99.99
2022-10-31T06:44:11.110Z,99.99
2022-10-31T06:45:11.083Z,99.99
2022-10-31T06:46:11.084Z,99.99
2022-10-31T06:47:11.079Z,99.99
2022-10-31T06:48:17.115Z,99.99
2022-10-31T06:49:11.058Z,99.99
2022-10-31T06:50:12.356Z,99.99
2022-10-31T06:51:11.013Z,99.99
2022-10-31T06:52:10.998Z,99.99
2022-10-31T06:54:10.982Z,99.99
2022-10-31T06:55:10.987Z,99.99
2022-10-31T06:56:10.964Z,99.99
2022-10-31T06:57:10.958Z,99.99
2022-10-31T06:58:11.247Z,99.99
2022-10-31T06:59:10.942Z,99.99
2022-10-31T07:00:10.918Z,99.99
2022-10-31T07:01:11.065Z,99.99
2022-10-31T07:02:11.101Z,99.99
2022-10-31T07:03:10.953Z,99.99
2022-10-31T07:04:10.887Z,99.99
2022-10-31T07:05:10.867Z,99.99
2022-10-31T07:06:10.869Z,99.99
2022-10-31T07:07:10.867Z,99.99
2022-10-31T07:08:13.613Z,99.99
2022-10-31T07:09:10.842Z,99.99
2022-10-31T07:11:10.824Z,99.99
2022-10-31T07:12:10.805Z,99.99
2022-10-31T07:13:10.793Z,99.99
2022-10-31T07:14:10.993Z,99.99
2022-10-31T07:15:10.803Z,99.99
2022-10-31T07:16:10.748Z,99.99
2022-10-31T07:17:10.756Z,99.99
2022-10-31T07:18:10.724Z,99.99
2022-10-31T07:19:10.732Z,99.99
2022-10-31T07:20:10.708Z,99.99
2022-10-31T07:21:10.708Z,99.99
2022-10-31T07:22:10.683Z,99.99
2022-10-31T07:23:10.687Z,99.99
2022-10-31T07:24:10.665Z,99.99
2022-10-31T07:25:10.695Z,99.99
2022-10-31T07:26:10.638Z,99.99
2022-10-31T07:27:10.660Z,99.99
2022-10-31T07:28:10.620Z,99.99
2022-10-31T07:29:10.615Z,99.99
2022-10-31T07:30:10.652Z,99.99
2022-10-31T07:31:10.589Z,99.99
2022-10-31T07:32:10.574Z,99.99
2022-10-31T07:33:10.561Z,99.99
2022-10-31T07:34:10.545Z,99.99
2022-10-31T07:35:10.559Z,99.99
2022-10-31T07:36:10.553Z,99.99
2022-10-31T07:37:10.554Z,99.99
2022-10-31T07:38:10.514Z,99.99
2022-10-31T07:39:10.510Z,99.99
2022-10-31T07:40:12.055Z,99.99
2022-10-31T07:41:11.772Z,99.99
2022-10-31T07:42:10.463Z,99.99
2022-10-31T07:43:13.968Z,99.99
2022-10-31T07:44:10.442Z,99.99
2022-10-31T07:45:10.446Z,99.99
2022-10-31T07:46:10.451Z,99.99
2022-10-31T07:47:10.434Z,99.99
2022-10-31T07:48:10.401Z,99.99
2022-10-31T07:49:10.408Z,99.99
2022-10-31T07:50:10.395Z,99.99
2022-10-31T07:51:10.376Z,99.99
2022-10-31T07:52:10.381Z,99.99
2022-10-31T07:53:10.395Z,99.99
2022-10-31T07:54:10.352Z,99.99
2022-10-31T07:55:10.366Z,99.99
2022-10-31T07:56:10.367Z,99.99
2022-10-31T07:57:10.315Z,99.99
2022-10-31T07:58:10.312Z,99.99
2022-10-31T07:59:10.306Z,99.99
2022-10-31T08:00:14.730Z,99.99
2022-10-31T08:01:10.405Z,99.99
2022-10-31T08:02:10.266Z,99.99
2022-10-31T08:03:10.279Z,99.99
2022-10-31T08:04:10.310Z,99.99
2022-10-31T08:05:10.256Z,99.99
2022-10-31T08:06:10.210Z,99.99
2022-10-31T08:07:11.004Z,99.99
2022-10-31T08:08:10.187Z,99.99
2022-10-31T08:09:10.246Z,99.99
2022-10-31T08:10:10.344Z,99.99
2022-10-31T08:11:10.197Z,99.99
2022-10-31T08:12:10.150Z,99.99
2022-10-31T08:13:10.151Z,99.99
2022-10-31T08:14:10.139Z,99.99
2022-10-31T08:15:10.124Z,99.99
2022-10-31T08:16:10.597Z,99.99
2022-10-31T08:17:10.161Z,99.99
2022-10-31T08:18:10.077Z,99.99
2022-10-31T08:19:10.162Z,99.99
2022-10-31T08:20:12.960Z,99.99
2022-10-31T08:21:10.066Z,99.99
2022-10-31T08:22:10.058Z,99.99
2022-10-31T08:23:10.078Z,99.99
2022-10-31T08:24:10.030Z,99.99
2022-10-31T08:25:10.038Z,99.99
2022-10-31T08:26:09.996Z,99.99
2022-10-31T08:27:10.006Z,99.99
2022-10-31T08:28:10.048Z,99.99
2022-10-31T08:29:09.953Z,99.99
2022-10-31T08:30:09.962Z,99.99
2022-10-31T08:31:09.940Z,99.99
2022-10-31T08:32:09.931Z,99.99
2022-10-31T08:33:09.938Z,99.99
2022-10-31T08:34:09.940Z,99.99
2022-10-31T08:35:10.137Z,99.99
2022-10-31T08:36:09.894Z,99.99
2022-10-31T08:37:09.895Z,99.99
2022-10-31T08:38:09.890Z,99.99
2022-10-31T08:39:09.891Z,99.99
2022-10-31T08:40:11.471Z,99.99
2022-10-31T08:41:09.845Z,99.99
2022-10-31T08:42:10.525Z,99.99
2022-10-31T08:43:09.817Z,99.99
2022-10-31T08:44:09.862Z,99.99
2022-10-31T08:45:09.813Z,99.99
2022-10-31T08:46:09.797Z,99.99
2022-10-31T08:47:09.766Z,99.99
2022-10-31T08:48:09.776Z,99.99
2022-10-31T08:49:09.757Z,99.63
2022-10-31T08:50:11.628Z,98.05
2022-10-31T08:51:09.738Z,98.26
2022-10-31T08:52:14.310Z,98.05
2022-10-31T08:53:09.732Z,97.60
2022-10-31T08:54:09.701Z,97.30
2022-10-31T08:55:09.672Z,97.30
2022-10-31T08:56:09.741Z,97.66
2022-10-31T08:57:09.671Z,96.64
2022-10-31T08:58:09.665Z,96.44
2022-10-31T08:59:09.646Z,95.68
2022-10-31T09:00:09.658Z,95.99
2022-10-31T09:01:09.737Z,95.54
2022-10-31T09:02:09.830Z,95.34
2022-10-31T09:03:09.616Z,94.22
2022-10-31T09:04:09.589Z,91.08
2022-10-31T09:05:09.618Z,89.25
2022-10-31T09:06:09.720Z,89.65
2022-10-31T09:07:24.814Z,89.65
2022-10-31T09:08:15.710Z,87.99
2022-10-31T09:09:09.547Z,87.79
2022-10-31T09:10:09.530Z,87.79
2022-10-31T09:11:09.732Z,86.98
2022-10-31T09:12:09.493Z,87.95
2022-10-31T09:13:09.486Z,87.04
2022-10-31T09:14:09.488Z,86.02
2022-10-31T09:15:09.478Z,85.62
2022-10-31T09:16:09.471Z,85.93
2022-10-31T09:17:09.457Z,83.96
2022-10-31T09:18:09.438Z,84.77
2022-10-31T09:19:11.507Z,84.97
2022-10-31T09:20:09.452Z,84.47
2022-10-31T09:21:09.403Z,85.17
2022-10-31T09:22:09.433Z,84.42
2022-10-31T09:23:09.383Z,85.64
2022-10-31T09:24:09.376Z,84.33
2022-10-31T09:25:09.379Z,82.90
2022-10-31T09:26:09.389Z,82.90
2022-10-31T09:27:09.346Z,81.85
2022-10-31T09:28:09.351Z,80.98
2022-10-31T09:29:09.315Z,83.88
2022-10-31T09:30:09.342Z,81.76
2022-10-31T09:31:09.293Z,82.87
2022-10-31T09:32:09.307Z,81.85
2022-10-31T09:33:31.801Z,81.85
2022-10-31T09:34:09.270Z,81.35
2022-10-31T09:35:09.335Z,81.51
2022-10-31T09:36:09.238Z,80.40
2022-10-31T09:37:09.246Z,80.46
2022-10-31T09:38:09.218Z,81.17
2022-10-31T09:39:09.208Z,78.34
2022-10-31T09:40:09.206Z,78.50
2022-10-31T09:41:10.748Z,78.10
2022-10-31T09:42:09.174Z,78.97
2022-10-31T09:43:10.817Z,77.73
2022-10-31T09:44:09.159Z,77.12
2022-10-31T09:45:09.164Z,76.82
2022-10-31T09:46:09.184Z,75.40
2022-10-31T09:47:09.120Z,76.45
2022-10-31T09:48:09.129Z,76.95
2022-10-31T09:49:09.130Z,78.06
2022-10-31T09:50:09.095Z,78.20
2022-10-31T09:51:09.485Z,78.61
2022-10-31T09:53:09.070Z,79.32
2022-10-31T09:54:09.065Z,79.41
2022-10-31T09:55:09.045Z,79.92
2022-10-31T09:56:09.097Z,79.62
2022-10-31T09:57:09.028Z,79.11
2022-10-31T09:58:09.010Z,79.46
2022-10-31T09:59:10.239Z,79.75
2022-10-31T10:00:08.997Z,80.46
2022-10-31T10:01:09.189Z,81.48
2022-10-31T10:02:09.102Z,81.07
2022-10-31T10:03:08.949Z,81.27
2022-10-31T10:04:08.937Z,81.78
2022-10-31T10:05:08.932Z,81.27
2022-10-31T10:06:08.937Z,81.98
2022-10-31T10:07:08.959Z,82.08
2022-10-31T10:08:08.924Z,82.59
2022-10-31T10:09:08.948Z,81.88
2022-10-31T10:10:09.064Z,81.88
2022-10-31T10:11:09.721Z,81.23
2022-10-31T10:12:08.865Z,81.13
2022-10-31T10:13:12.186Z,80.99
2022-10-31T10:14:08.838Z,80.05
2022-10-31T10:15:08.960Z,80.15
2022-10-31T10:16:08.821Z,79.71
2022-10-31T10:17:08.834Z,77.55
2022-10-31T10:18:08.773Z,76.95
2022-10-31T10:19:08.800Z,76.44
2022-10-31T10:20:08.761Z,76.44
2022-10-31T10:21:08.759Z,76.84
2022-10-31T10:22:08.749Z,77.01
2022-10-31T10:23:08.760Z,76.10
2022-10-31T10:24:08.739Z,76.31
2022-10-31T10:25:08.715Z,76.44
2022-10-31T10:26:11.195Z,77.04
2022-10-31T10:27:08.703Z,77.59
2022-10-31T10:28:08.674Z,77.79
2022-10-31T10:29:08.717Z,77.99
2022-10-31T10:30:08.652Z,78.50
2022-10-31T10:31:08.673Z,78.03
2022-10-31T10:32:08.682Z,78.84
2022-10-31T10:33:08.645Z,79.58
2022-10-31T10:34:08.650Z,80.08
2022-10-31T10:35:08.674Z,80.79
2022-10-31T10:36:08.733Z,81.70
2022-10-31T10:37:08.742Z,81.70
2022-10-31T10:38:08.609Z,81.40
2022-10-31T10:39:08.573Z,81.60
2022-10-31T10:40:08.562Z,81.90
2022-10-31T10:41:08.558Z,81.80
2022-10-31T10:42:08.705Z,81.80
2022-10-31T10:43:08.527Z,82.61
2022-10-31T10:44:08.533Z,82.31
2022-10-31T10:45:08.523Z,82.10
2022-10-31T10:46:11.622Z,82.71
2022-10-31T10:47:08.505Z,82.51
2022-10-31T10:48:08.470Z,83.22
2022-10-31T10:49:08.492Z,82.95
2022-10-31T10:50:08.450Z,82.65
2022-10-31T10:51:16.036Z,82.65
2022-10-31T10:53:08.449Z,83.26
2022-10-31T10:54:10.554Z,83.86
2022-10-31T10:55:08.400Z,84.06
2022-10-31T10:56:08.378Z,84.27
2022-10-31T10:57:08.392Z,84.67
2022-10-31T10:58:08.356Z,84.37
2022-10-31T10:59:08.365Z,84.47
2022-10-31T11:00:08.363Z,83.76
2022-10-31T11:01:08.588Z,84.12
2022-10-31T11:02:08.327Z,83.62
2022-10-31T11:03:08.334Z,82.71
2022-10-31T11:04:08.301Z,83.78
2022-10-31T11:05:08.290Z,83.34
2022-10-31T11:06:08.293Z,82.93
2022-10-31T11:07:08.275Z,82.84
2022-10-31T11:08:08.266Z,82.59
2022-10-31T11:09:08.252Z,81.04
2022-10-31T11:10:08.303Z,81.45
2022-10-31T11:11:08.239Z,81.51
2022-10-31T11:12:08.224Z,79.19
2022-10-31T11:13:08.224Z,79.19
2022-10-31T11:14:08.202Z,78.39
2022-10-31T11:15:09.694Z,79.05
2022-10-31T11:16:08.163Z,77.55
2022-10-31T11:17:08.173Z,77.95
2022-10-31T11:18:08.156Z,77.04
2022-10-31T11:19:08.142Z,77.70
2022-10-31T11:20:08.133Z,77.61
2022-10-31T11:21:08.168Z,77.34
2022-10-31T11:22:08.115Z,79.02
2022-10-31T11:23:08.277Z,77.70
2022-10-31T11:24:08.069Z,76.54
2022-10-31T11:25:08.074Z,77.64
2022-10-31T11:26:08.074Z,77.84
2022-10-31T11:27:08.055Z,78.45
2022-10-31T11:28:08.067Z,77.48
2022-10-31T11:29:08.034Z,77.98
2022-10-31T11:30:10.987Z,78.49
2022-10-31T11:31:08.003Z,78.79
2022-10-31T11:32:08.010Z,79.23
2022-10-31T11:33:07.993Z,79.33
2022-10-31T11:34:09.525Z,79.83
2022-10-31T11:35:08.063Z,80.04
2022-10-31T11:36:07.945Z,80.33
2022-10-31T11:37:07.944Z,80.64
2022-10-31T11:38:09.144Z,79.97
2022-10-31T11:39:07.961Z,80.68
2022-10-31T11:40:09.657Z,81.08
2022-10-31T11:41:07.912Z,82.19
2022-10-31T11:42:10.515Z,81.38
2022-10-31T11:43:07.987Z,80.98
2022-10-31T11:44:08.118Z,81.38
2022-10-31T11:45:10.013Z,81.18
2022-10-31T11:46:07.910Z,81.18
2022-10-31T11:47:08.720Z,81.59
2022-10-31T11:48:29.124Z,80.68
2022-10-31T11:49:08.498Z,81.48
2022-10-31T11:50:09.163Z,80.98
2022-10-31T11:51:07.968Z,80.38
2022-10-31T11:52:07.826Z,80.68
2022-10-31T11:53:07.765Z,81.08
2022-10-31T11:54:07.804Z,81.08
2022-10-31T11:55:08.913Z,80.88
2022-10-31T11:56:07.880Z,80.78
2022-10-31T11:57:07.786Z,80.98
2022-10-31T11:58:07.726Z,80.68
2022-10-31T11:59:10.549Z,81.28
2022-10-31T12:00:07.718Z,80.58
2022-10-31T12:01:07.873Z,80.44
2022-10-31T12:02:07.961Z,80.44
2022-10-31T12:03:11.534Z,80.54
2022-10-31T12:04:07.912Z,80.54
2022-10-31T12:05:08.752Z,80.94
2022-10-31T12:06:14.735Z,80.84
2022-10-31T12:07:07.743Z,81.35
2022-10-31T12:08:07.644Z,80.50
2022-10-31T12:09:07.603Z,80.30
2022-10-31T12:10:07.611Z,80.30
2022-10-31T12:11:08.755Z,80.90
2022-10-31T12:12:07.573Z,81.41
2022-10-31T12:13:08.517Z,80.30
2022-10-31T12:14:07.609Z,80.80
2022-10-31T12:15:08.833Z,81.10
2022-10-31T12:16:07.563Z,81.04
2022-10-31T12:17:07.530Z,81.15
2022-10-31T12:18:07.511Z,81.04
2022-10-31T12:19:07.498Z,81.30
2022-10-31T12:20:07.510Z,81.81
2022-10-31T12:21:07.483Z,82.31
2022-10-31T12:22:08.126Z,81.10
2022-10-31T12:23:07.461Z,81.71
2022-10-31T12:24:08.429Z,81.81
2022-10-31T12:25:07.616Z,82.01
2022-10-31T12:26:07.599Z,81.04
2022-10-31T12:27:07.529Z,81.55
2022-10-31T12:28:07.430Z,81.85
2022-10-31T12:29:07.470Z,81.45
2022-10-31T12:30:07.390Z,81.95
2022-10-31T12:31:07.620Z,81.75
2022-10-31T12:32:07.423Z,82.25
2022-10-31T12:33:09.197Z,82.05
2022-10-31T12:34:07.370Z,81.30
2022-10-31T12:35:07.389Z,80.90
2022-10-31T12:36:09.717Z,81.51
2022-10-31T12:37:09.768Z,80.20
2022-10-31T12:38:07.459Z,80.54
2022-10-31T12:39:07.387Z,80.94
2022-10-31T12:40:10.014Z,80.54
2022-10-31T12:41:07.310Z,81.24
2022-10-31T12:42:07.327Z,81.24
2022-10-31T12:43:07.325Z,81.55
2022-10-31T12:44:07.274Z,82.15
2022-10-31T12:45:07.244Z,82.15
2022-10-31T12:46:07.235Z,82.35
2022-10-31T12:47:07.290Z,81.85
2022-10-31T12:48:07.219Z,82.45
2022-10-31T12:49:07.219Z,82.25
2022-10-31T12:50:07.230Z,81.85
2022-10-31T12:51:07.220Z,81.65
2022-10-31T12:52:07.166Z,82.15
2022-10-31T12:53:07.222Z,82.45
2022-10-31T12:54:08.060Z,82.76
2022-10-31T12:55:07.305Z,82.42
2022-10-31T12:56:07.140Z,81.30
2022-10-31T12:57:07.133Z,81.91
2022-10-31T12:58:07.105Z,81.81